createdAt,value
2023-07-24T00:02:15.266Z,1.65
2023-07-24T00:04:43.693Z,1.23
2023-07-24T00:07:11.255Z,1.30
2023-07-24T00:09:39.060Z,1.63
2023-07-24T00:12:13.299Z,1.70
2023-07-24T00:14:41.075Z,1.42
2023-07-24T00:17:10.202Z,1.67
2023-07-24T00:19:37.894Z,1.90
2023-07-24T00:22:05.745Z,1.63
2023-07-24T00:24:33.402Z,1.85
2023-07-24T00:27:01.258Z,1.80
2023-07-24T00:29:28.956Z,2.10
2023-07-24T00:31:56.598Z,1.50
2023-07-24T00:34:26.328Z,1.77
2023-07-24T00:36:56.208Z,2.38
2023-07-24T00:39:23.776Z,1.30
2023-07-24T00:41:51.685Z,1.60
2023-07-24T00:44:23.648Z,1.98
2023-07-24T00:46:51.686Z,1.53
2023-07-24T00:49:19.654Z,2.03
2023-07-24T00:51:48.779Z,2.15
2023-07-24T00:54:18.532Z,2.10
2023-07-24T00:56:47.047Z,2.00
2023-07-24T00:59:16.626Z,2.03
2023-07-24T01:01:44.890Z,2.00
2023-07-24T01:04:12.700Z,2.30
2023-07-24T01:06:40.526Z,1.77
2023-07-24T01:09:09.514Z,1.80
2023-07-24T01:11:39.271Z,1.60
2023-07-24T01:14:12.040Z,1.77
2023-07-24T01:16:40.143Z,1.60
2023-07-24T01:19:14.209Z,1.60
2023-07-24T01:21:47.831Z,1.50
2023-07-24T01:24:26.050Z,1.90
2023-07-24T01:26:55.127Z,2.30
2023-07-24T01:29:22.939Z,1.85
2023-07-24T01:31:50.732Z,2.00
2023-07-24T01:34:18.406Z,1.90
2023-07-24T01:36:46.316Z,1.50
2023-07-24T01:42:01.546Z,1.95
2023-07-24T01:44:29.767Z,2.10
2023-07-24T01:46:59.162Z,2.00
2023-07-24T01:49:27.300Z,1.80
2023-07-24T01:51:54.884Z,2.08
2023-07-24T01:54:22.460Z,2.22
2023-07-24T01:56:54.260Z,1.85
2023-07-24T01:59:23.205Z,2.28
2023-07-24T02:01:50.763Z,1.83
2023-07-24T02:04:18.483Z,2.25
2023-07-24T02:06:46.074Z,1.85
2023-07-24T02:09:13.608Z,2.10
2023-07-24T02:11:41.643Z,2.10
2023-07-24T02:14:09.259Z,1.83
2023-07-24T02:16:38.951Z,1.80
2023-07-24T02:19:07.174Z,1.80
2023-07-24T02:21:34.774Z,2.10
2023-07-24T02:24:02.365Z,1.95
2023-07-24T02:26:30.311Z,1.67
2023-07-24T02:28:58.021Z,1.60
2023-07-24T02:31:25.706Z,1.85
2023-07-24T02:33:54.917Z,1.85
2023-07-24T02:36:22.486Z,1.80
2023-07-24T02:38:50.044Z,2.13
2023-07-24T02:41:17.737Z,1.67
2023-07-24T02:43:45.340Z,2.80
2023-07-24T02:46:13.053Z,2.03
2023-07-24T02:48:40.894Z,2.08
2023-07-24T02:51:09.847Z,2.20
2023-07-24T02:53:37.952Z,1.70
2023-07-24T02:56:06.042Z,1.98
2023-07-24T02:58:33.577Z,2.00
2023-07-24T03:01:05.020Z,1.83
2023-07-24T03:03:35.575Z,1.87
2023-07-24T03:06:04.037Z,2.05
2023-07-24T03:11:18.424Z,1.70
2023-07-24T03:13:46.194Z,2.58
2023-07-24T03:16:13.808Z,2.53
2023-07-24T03:18:42.154Z,2.08
2023-07-24T03:21:15.774Z,1.85
2023-07-24T03:23:46.622Z,1.95
2023-07-24T03:26:14.215Z,1.67
2023-07-24T03:28:44.055Z,2.17
2023-07-24T03:31:12.121Z,1.65
2023-07-24T03:33:39.966Z,2.10
2023-07-24T03:36:07.572Z,1.85
2023-07-24T03:38:36.398Z,2.08
2023-07-24T03:41:05.352Z,2.20
2023-07-24T03:43:39.370Z,1.88
2023-07-24T03:46:07.604Z,2.35
2023-07-24T03:48:35.854Z,2.05
2023-07-24T03:51:03.851Z,2.28
2023-07-24T03:53:32.836Z,2.13
2023-07-24T03:56:00.955Z,2.28
2023-07-24T03:58:32.374Z,2.28
2023-07-24T04:01:00.075Z,2.42
2023-07-24T04:03:27.853Z,2.45
2023-07-24T04:05:55.990Z,2.50
2023-07-24T04:08:23.697Z,2.20
2023-07-24T04:10:51.277Z,1.98
2023-07-24T04:13:18.943Z,2.10
2023-07-24T04:15:47.947Z,2.40
2023-07-24T04:18:15.547Z,1.90
2023-07-24T04:20:43.776Z,2.28
2023-07-24T04:23:11.564Z,2.33
2023-07-24T04:25:41.021Z,2.15
2023-07-24T04:28:08.729Z,1.95
2023-07-24T04:30:36.427Z,1.70
2023-07-24T04:33:05.630Z,1.70
2023-07-24T04:35:33.292Z,2.00
2023-07-24T04:38:01.005Z,1.67
2023-07-24T04:40:28.653Z,1.80
2023-07-24T04:42:56.337Z,2.10
2023-07-24T04:45:24.287Z,2.00
2023-07-24T04:47:51.951Z,2.30
2023-07-24T04:50:21.166Z,1.95
2023-07-24T04:52:48.809Z,2.00
2023-07-24T04:55:16.517Z,1.97
2023-07-24T04:57:44.481Z,2.08
2023-07-24T05:00:12.719Z,2.38
2023-07-24T05:02:40.431Z,1.85
2023-07-24T05:05:08.483Z,1.90
2023-07-24T05:07:37.493Z,1.87
2023-07-24T05:10:08.224Z,2.13
2023-07-24T05:12:35.876Z,2.03
2023-07-24T05:15:03.955Z,2.30
2023-07-24T05:17:31.644Z,2.10
2023-07-24T05:19:59.423Z,2.00
2023-07-24T05:22:27.404Z,1.85
2023-07-24T05:24:58.299Z,2.30
2023-07-24T05:27:27.223Z,2.30
2023-07-24T05:29:54.967Z,1.75
2023-07-24T05:32:22.637Z,2.23
2023-07-24T05:34:50.343Z,2.35
2023-07-24T05:37:18.031Z,2.20
2023-07-24T05:39:45.674Z,2.22
2023-07-24T05:42:14.677Z,2.15
2023-07-24T05:44:42.788Z,1.97
2023-07-24T05:47:15.435Z,2.10
2023-07-24T05:49:47.972Z,2.63
2023-07-24T05:52:15.614Z,2.38
2023-07-24T05:54:44.051Z,2.20
2023-07-24T05:57:12.001Z,2.47
2023-07-24T05:59:40.973Z,2.60
2023-07-24T06:02:09.492Z,2.78
2023-07-24T06:04:37.233Z,3.05
2023-07-24T06:07:05.172Z,2.58
2023-07-24T06:09:32.905Z,3.10
2023-07-24T06:12:00.602Z,2.92
2023-07-24T06:14:28.175Z,2.75
2023-07-24T06:16:57.965Z,2.40
2023-07-24T06:19:25.657Z,2.35
2023-07-24T06:21:53.365Z,2.67
2023-07-24T06:24:21.887Z,2.60
2023-07-24T06:26:49.612Z,2.47
2023-07-24T06:29:17.241Z,2.53
2023-07-24T06:31:44.907Z,2.15
2023-07-24T06:34:13.987Z,1.60
2023-07-24T06:36:41.591Z,1.10
2023-07-24T06:39:12.607Z,0.90
2023-07-24T06:41:40.237Z,0.80
2023-07-24T06:44:07.904Z,0.70
2023-07-24T06:46:35.503Z,0.60
2023-07-24T06:49:03.349Z,0.60
2023-07-24T06:51:32.279Z,0.55
2023-07-24T06:54:00.004Z,0.43
2023-07-24T06:56:28.028Z,0.52
2023-07-24T06:58:56.106Z,0.60
2023-07-24T07:01:23.746Z,0.57
2023-07-24T07:03:51.450Z,0.40
2023-07-24T07:08:50.899Z,0.50
2023-07-24T07:11:18.589Z,0.60
2023-07-24T07:13:46.172Z,0.50
2023-07-24T07:16:13.767Z,0.40
2023-07-24T07:18:41.704Z,0.40
2023-07-24T07:21:11.296Z,0.60
2023-07-24T07:23:38.853Z,0.50
2023-07-24T07:26:07.854Z,0.60
2023-07-24T07:28:35.473Z,0.63
2023-07-24T07:31:03.502Z,0.50
2023-07-24T07:33:31.236Z,0.77
2023-07-24T07:36:01.897Z,0.30
2023-07-24T07:38:29.578Z,0.20
2023-07-24T07:40:57.514Z,0.40
2023-07-24T07:43:26.569Z,0.30
2023-07-24T07:45:54.229Z,0.55
2023-07-24T07:48:21.919Z,0.50
2023-07-24T07:50:52.216Z,0.30
2023-07-24T07:53:19.884Z,0.40
2023-07-24T07:55:47.686Z,0.40
2023-07-24T07:58:15.318Z,0.30
2023-07-24T08:00:44.555Z,0.50
2023-07-24T08:03:12.724Z,0.60
2023-07-24T08:05:40.304Z,0.50
2023-07-24T08:08:07.980Z,0.30
2023-07-24T08:10:35.975Z,0.43
2023-07-24T08:13:03.588Z,0.47
2023-07-24T08:15:32.632Z,0.30
2023-07-24T08:18:03.407Z,0.43
2023-07-24T08:20:31.169Z,0.37
2023-07-24T08:22:58.776Z,0.30
2023-07-24T08:25:26.549Z,0.40
2023-07-24T08:28:04.445Z,0.30
2023-07-24T08:30:33.886Z,0.30
2023-07-24T08:33:02.929Z,0.40
2023-07-24T08:35:30.677Z,0.30
2023-07-24T08:37:58.603Z,0.40
2023-07-24T08:40:26.217Z,0.43
2023-07-24T08:42:54.758Z,0.40
2023-07-24T08:45:22.812Z,0.30
2023-07-24T08:47:50.783Z,0.25
2023-07-24T08:50:20.439Z,0.45
2023-07-24T08:52:48.491Z,0.40
2023-07-24T08:55:16.417Z,0.65
2023-07-24T08:57:44.066Z,0.60
2023-07-24T09:00:13.016Z,0.60
2023-07-24T09:02:40.700Z,1.10
2023-07-24T09:05:09.051Z,1.00
2023-07-24T09:07:39.661Z,0.98
2023-07-24T09:10:10.924Z,0.90
2023-07-24T09:12:41.148Z,0.63
2023-07-24T09:15:10.762Z,0.80
2023-07-24T09:17:38.464Z,0.75
2023-07-24T09:20:06.799Z,0.80
2023-07-24T09:22:34.925Z,0.60
2023-07-24T09:25:04.708Z,0.60
2023-07-24T09:27:33.297Z,0.80
2023-07-24T09:30:02.015Z,0.77
2023-07-24T09:32:32.027Z,0.93
2023-07-24T09:34:59.797Z,0.70
2023-07-24T09:37:28.324Z,0.70
2023-07-24T09:39:56.032Z,0.80
2023-07-24T09:42:34.205Z,0.65
2023-07-24T09:45:02.172Z,0.70
2023-07-24T09:47:53.675Z,0.60
2023-07-24T09:50:19.901Z,0.85
2023-07-24T09:52:49.343Z,1.17
2023-07-24T09:55:21.636Z,1.00
2023-07-24T09:57:52.006Z,1.00
2023-07-24T10:00:19.620Z,0.53
2023-07-24T10:02:47.553Z,0.90
2023-07-24T10:05:16.747Z,0.90
2023-07-24T10:07:44.821Z,0.60
2023-07-24T10:10:12.930Z,0.70
2023-07-24T10:12:40.841Z,0.90
2023-07-24T10:15:10.414Z,0.80
2023-07-24T10:17:38.392Z,0.65
2023-07-24T10:20:08.296Z,0.82
2023-07-24T10:22:36.524Z,0.60
2023-07-24T10:25:04.644Z,0.83
2023-07-24T10:27:32.450Z,1.00
2023-07-24T10:30:00.857Z,0.85
2023-07-24T10:32:30.058Z,0.82
2023-07-24T10:34:58.209Z,0.82
2023-07-24T10:37:33.543Z,0.80
2023-07-24T10:40:01.357Z,1.15
2023-07-24T10:42:29.109Z,0.80
2023-07-24T10:45:04.052Z,0.70
2023-07-24T10:47:33.884Z,1.00
2023-07-24T10:50:02.407Z,1.00
2023-07-24T10:52:30.592Z,1.02
2023-07-24T10:55:06.484Z,1.45
2023-07-24T10:57:34.312Z,1.17
2023-07-24T11:00:02.045Z,1.10
2023-07-24T11:02:29.962Z,1.10
2023-07-24T11:05:00.741Z,1.30
2023-07-24T11:07:33.678Z,0.95
2023-07-24T11:10:08.276Z,0.80
2023-07-24T11:12:40.958Z,1.20
2023-07-24T11:15:09.431Z,0.80
2023-07-24T11:17:38.603Z,0.82
2023-07-24T11:20:12.759Z,0.80
2023-07-24T11:22:40.896Z,1.10
2023-07-24T11:25:09.126Z,1.23
2023-07-24T11:27:40.105Z,1.00
2023-07-24T11:30:08.518Z,1.42
2023-07-24T11:32:36.240Z,1.10
2023-07-24T11:35:04.936Z,1.20
2023-07-24T11:37:38.849Z,1.10
2023-07-24T11:40:11.404Z,0.93
2023-07-24T11:42:40.350Z,1.00
2023-07-24T11:45:10.739Z,1.10
2023-07-24T11:47:45.793Z,1.08
2023-07-24T11:50:13.722Z,1.58
2023-07-24T11:52:44.633Z,1.10
2023-07-24T11:55:12.765Z,1.13
2023-07-24T11:57:40.374Z,0.88
2023-07-24T12:00:10.410Z,1.00
2023-07-24T12:02:38.614Z,0.88
2023-07-24T12:05:07.003Z,1.10
2023-07-24T12:07:35.275Z,1.00
2023-07-24T12:10:06.261Z,1.25
2023-07-24T12:12:40.493Z,0.80
2023-07-24T12:15:08.802Z,1.05
2023-07-24T12:17:36.358Z,0.80
2023-07-24T12:20:06.440Z,1.30
2023-07-24T12:22:34.253Z,0.93
2023-07-24T12:25:01.936Z,0.55
2023-07-24T12:27:30.964Z,0.82
2023-07-24T12:29:58.779Z,0.70
2023-07-24T12:32:26.348Z,0.70
2023-07-24T12:34:55.025Z,0.85
2023-07-24T12:37:23.079Z,0.95
2023-07-24T12:39:51.127Z,0.93
2023-07-24T12:42:18.805Z,1.33
2023-07-24T12:44:47.870Z,1.50
2023-07-24T12:47:16.438Z,1.23
2023-07-24T12:49:44.698Z,1.30
2023-07-24T12:52:12.428Z,1.20
2023-07-24T12:54:50.786Z,0.88
2023-07-24T12:57:28.388Z,1.00
2023-07-24T12:59:57.386Z,1.20
2023-07-24T13:02:25.338Z,0.90
2023-07-24T13:04:54.589Z,1.08
2023-07-24T13:07:22.156Z,1.38
2023-07-24T13:09:50.202Z,1.50
2023-07-24T13:12:18.206Z,1.20
2023-07-24T13:14:46.143Z,1.10
2023-07-24T13:17:15.238Z,1.00
2023-07-24T13:19:46.903Z,1.20
2023-07-24T13:22:14.466Z,1.17
2023-07-24T13:24:42.146Z,0.93
2023-07-24T13:27:10.109Z,0.90
2023-07-24T13:29:37.943Z,1.05
2023-07-24T13:32:06.164Z,1.20
2023-07-24T13:34:35.217Z,0.98
2023-07-24T13:37:02.852Z,1.00
2023-07-24T13:39:32.713Z,1.07
2023-07-24T13:42:00.598Z,1.35
2023-07-24T13:44:28.161Z,1.60
2023-07-24T13:46:57.245Z,1.58
2023-07-24T13:49:25.275Z,1.50
2023-07-24T13:51:54.399Z,1.80
2023-07-24T13:54:22.039Z,1.52
2023-07-24T13:56:49.847Z,1.60
2023-07-24T13:59:17.527Z,1.55
2023-07-24T14:01:46.026Z,1.80
2023-07-24T14:04:15.711Z,1.83
2023-07-24T14:06:43.671Z,1.50
2023-07-24T14:09:12.980Z,1.50
2023-07-24T14:11:42.936Z,1.58
2023-07-24T14:14:10.591Z,2.17
2023-07-24T14:16:40.306Z,1.70
2023-07-24T14:19:09.599Z,1.42
2023-07-24T14:21:37.677Z,1.30
2023-07-24T14:24:05.690Z,1.45
2023-07-24T14:26:37.517Z,1.80
2023-07-24T14:29:05.110Z,1.30
2023-07-24T14:31:32.937Z,1.90
2023-07-24T14:34:01.114Z,2.25
2023-07-24T14:36:34.894Z,1.42
2023-07-24T14:39:03.041Z,1.80
2023-07-24T14:41:30.945Z,1.80
2023-07-24T14:44:04.239Z,1.58
2023-07-24T14:46:31.991Z,1.90
2023-07-24T14:48:59.751Z,1.90
2023-07-24T14:51:27.833Z,2.20
2023-07-24T14:53:55.718Z,2.00
2023-07-24T14:56:23.458Z,2.45
2023-07-24T14:58:51.233Z,2.20
2023-07-24T15:04:05.868Z,2.17
2023-07-24T15:06:33.551Z,2.60
2023-07-24T15:09:01.132Z,2.22
2023-07-24T15:11:30.121Z,2.20
2023-07-24T15:13:57.988Z,1.65
2023-07-24T15:16:27.018Z,2.10
2023-07-24T15:18:54.744Z,1.77
2023-07-24T15:21:22.621Z,2.20
2023-07-24T15:23:52.962Z,2.20
2023-07-24T15:26:20.865Z,2.03
2023-07-24T15:28:49.077Z,2.17
2023-07-24T15:31:19.228Z,1.50
2023-07-24T15:33:48.475Z,1.67
2023-07-24T15:36:17.334Z,1.80
2023-07-24T15:38:46.226Z,1.83
2023-07-24T15:41:13.882Z,1.88
2023-07-24T15:43:41.598Z,1.98
2023-07-24T15:46:09.320Z,1.85
2023-07-24T15:48:37.023Z,1.70
2023-07-24T15:51:06.057Z,1.50
2023-07-24T15:53:33.816Z,1.90
2023-07-24T15:56:01.827Z,1.80
2023-07-24T15:58:29.459Z,1.17
2023-07-24T16:00:57.138Z,1.30
2023-07-24T16:03:25.240Z,1.27
2023-07-24T16:05:53.075Z,1.10
2023-07-24T16:08:22.168Z,1.60
2023-07-24T16:10:50.096Z,1.30
2023-07-24T16:13:17.764Z,1.53
2023-07-24T16:15:46.940Z,1.40
2023-07-24T16:18:14.813Z,1.80
2023-07-24T16:20:43.384Z,2.30
2023-07-24T16:23:11.017Z,2.00
2023-07-24T16:25:40.048Z,2.40
2023-07-24T16:28:10.432Z,2.10
2023-07-24T16:30:38.243Z,2.20
2023-07-24T16:33:06.388Z,2.47
2023-07-24T16:35:34.166Z,2.08
2023-07-24T16:38:04.289Z,3.00
2023-07-24T16:40:33.972Z,2.78
2023-07-24T16:43:04.337Z,2.83
2023-07-24T16:45:36.719Z,3.20
2023-07-24T16:48:05.227Z,3.00
2023-07-24T16:50:35.217Z,2.70
2023-07-24T16:53:02.840Z,2.90
2023-07-24T16:55:31.211Z,3.20
2023-07-24T16:57:58.989Z,3.22
2023-07-24T17:00:27.990Z,3.00
2023-07-24T17:02:55.900Z,3.03
2023-07-24T17:05:23.730Z,2.85
2023-07-24T17:07:51.348Z,3.22
2023-07-24T17:10:20.414Z,2.70
2023-07-24T17:12:48.089Z,2.88
2023-07-24T17:15:17.060Z,2.90
2023-07-24T17:17:46.460Z,6.30
2023-07-24T17:20:14.191Z,10.35
2023-07-24T17:22:42.679Z,7.50
2023-07-24T17:25:10.585Z,7.85
2023-07-24T17:27:39.465Z,6.83
2023-07-24T17:30:07.842Z,6.50
2023-07-24T17:32:35.668Z,5.90
2023-07-24T17:35:04.821Z,5.88
2023-07-24T17:37:38.601Z,6.22
2023-07-24T17:40:09.523Z,6.50
2023-07-24T17:42:37.552Z,3.95
2023-07-24T17:45:05.591Z,4.20
2023-07-24T17:47:34.146Z,3.33
2023-07-24T17:50:07.778Z,3.47
2023-07-24T17:52:37.816Z,3.35
2023-07-24T17:55:06.009Z,3.53
2023-07-24T17:57:33.748Z,3.83
2023-07-24T18:00:01.697Z,3.70
2023-07-24T18:02:29.414Z,4.00
2023-07-24T18:04:57.119Z,3.35
2023-07-24T18:07:24.733Z,4.80
2023-07-24T18:09:53.833Z,6.63
2023-07-24T18:12:21.905Z,5.68
2023-07-24T18:14:49.890Z,6.18
2023-07-24T18:17:17.654Z,6.90
2023-07-24T18:19:46.071Z,11.85
2023-07-24T18:22:18.344Z,13.15
2023-07-24T18:24:46.375Z,14.52
2023-07-24T18:27:15.314Z,16.58
2023-07-24T18:29:43.201Z,14.90
2023-07-24T18:32:11.161Z,14.50
2023-07-24T18:34:38.904Z,14.27
2023-07-24T18:37:07.815Z,16.30
2023-07-24T18:39:35.595Z,17.25
2023-07-24T18:42:03.409Z,17.23
2023-07-24T18:44:32.396Z,13.57
2023-07-24T18:47:00.110Z,13.55
2023-07-24T18:49:27.751Z,7.68
2023-07-24T18:51:55.451Z,7.90
2023-07-24T18:54:23.252Z,5.67
2023-07-24T18:56:50.966Z,5.03
2023-07-24T18:59:18.818Z,4.80
2023-07-24T19:01:48.363Z,4.43
2023-07-24T19:04:16.124Z,4.15
2023-07-24T19:06:44.300Z,4.20
2023-07-24T19:09:12.024Z,3.95
2023-07-24T19:11:45.643Z,3.78
2023-07-24T19:14:13.400Z,3.70
2023-07-24T19:16:41.134Z,3.65
2023-07-24T19:19:11.137Z,3.70
2023-07-24T19:21:39.064Z,3.47
2023-07-24T19:24:07.679Z,3.50
2023-07-24T19:26:35.580Z,3.67
2023-07-24T19:29:03.437Z,3.65
2023-07-24T19:31:32.602Z,3.70
2023-07-24T19:34:01.353Z,3.25
2023-07-24T19:36:30.564Z,2.95
2023-07-24T19:38:58.228Z,3.03
2023-07-24T19:41:25.899Z,3.00
2023-07-24T19:43:53.588Z,3.73
2023-07-24T19:46:21.251Z,2.85
2023-07-24T19:48:48.919Z,3.20
2023-07-24T19:51:16.744Z,3.35
2023-07-24T19:53:45.860Z,3.45
2023-07-24T19:56:13.591Z,3.57
2023-07-24T19:58:41.431Z,3.83
2023-07-24T20:01:11.368Z,3.33
2023-07-24T20:03:41.193Z,3.88
2023-07-24T20:06:11.756Z,3.50
2023-07-24T20:08:39.520Z,3.87
2023-07-24T20:11:08.674Z,4.13
2023-07-24T20:13:36.648Z,4.32
2023-07-24T20:16:05.873Z,4.10
2023-07-24T20:18:33.579Z,4.40
2023-07-24T20:21:02.832Z,4.00
2023-07-24T20:23:30.589Z,4.03
2023-07-24T20:25:58.193Z,4.00
2023-07-24T20:28:27.416Z,4.55
2023-07-24T20:30:55.118Z,3.60
2023-07-24T20:33:24.020Z,4.50
2023-07-24T20:35:51.730Z,4.50
2023-07-24T20:38:23.298Z,4.63
2023-07-24T20:40:51.656Z,4.35
2023-07-24T20:43:19.717Z,5.57
2023-07-24T20:45:48.731Z,4.93
2023-07-24T20:48:16.609Z,4.68
2023-07-24T20:50:44.454Z,5.40
2023-07-24T20:53:12.363Z,5.60
2023-07-24T20:55:40.130Z,4.87
2023-07-24T20:58:07.820Z,4.93
2023-07-24T21:00:35.613Z,5.43
2023-07-24T21:03:04.769Z,5.30
2023-07-24T21:05:35.501Z,4.95
2023-07-24T21:08:05.454Z,4.05
2023-07-24T21:10:33.594Z,4.60
2023-07-24T21:13:01.160Z,4.30
2023-07-24T21:15:28.918Z,4.27
2023-07-24T21:17:56.675Z,4.60
2023-07-24T21:20:25.858Z,4.00
2023-07-24T21:22:53.417Z,3.80
2023-07-24T21:25:21.051Z,3.90
2023-07-24T21:27:48.773Z,3.93
2023-07-24T21:30:16.909Z,3.85
2023-07-24T21:32:44.693Z,3.97
2023-07-24T21:35:12.482Z,3.83
2023-07-24T21:37:45.901Z,4.20
2023-07-24T21:40:13.709Z,5.05
2023-07-24T21:42:41.668Z,3.88
2023-07-24T21:45:10.004Z,4.63
2023-07-24T21:47:37.724Z,4.28
2023-07-24T21:50:05.658Z,4.30
2023-07-24T21:52:37.341Z,4.93
2023-07-24T21:55:06.850Z,4.93
2023-07-24T21:57:34.520Z,4.30
2023-07-24T22:00:02.440Z,4.38
2023-07-24T22:02:30.164Z,4.40
2023-07-24T22:04:57.812Z,4.28
2023-07-24T22:07:25.553Z,4.68
2023-07-24T22:09:53.369Z,4.10
2023-07-24T22:12:23.297Z,5.18
2023-07-24T22:14:50.963Z,4.90
2023-07-24T22:17:18.635Z,4.88
2023-07-24T22:19:46.263Z,5.55
2023-07-24T22:22:13.915Z,5.82
2023-07-24T22:24:41.704Z,5.43
2023-07-24T22:27:10.000Z,6.43
2023-07-24T22:29:39.082Z,6.50
2023-07-24T22:32:07.116Z,6.03
2023-07-24T22:34:35.591Z,6.20
2023-07-24T22:37:03.356Z,5.35
2023-07-24T22:39:31.174Z,5.03
2023-07-24T22:42:00.488Z,4.28
2023-07-24T22:44:28.405Z,4.05
2023-07-24T22:46:57.560Z,4.07
2023-07-24T22:49:25.543Z,4.45
2023-07-24T22:51:54.401Z,4.23
2023-07-24T22:54:22.053Z,4.45
2023-07-24T22:56:49.702Z,3.92
2023-07-24T22:59:18.395Z,4.10
2023-07-24T23:01:46.689Z,3.88
2023-07-24T23:04:15.840Z,4.50
2023-07-24T23:06:44.062Z,4.07
2023-07-24T23:09:12.084Z,3.92
2023-07-24T23:11:47.399Z,4.35
2023-07-24T23:14:15.019Z,4.05
2023-07-24T23:16:43.017Z,4.00
2023-07-24T23:19:11.027Z,3.88
2023-07-24T23:21:48.554Z,4.00
2023-07-24T23:24:16.384Z,4.00
2023-07-24T23:26:44.679Z,4.13
2023-07-24T23:29:12.244Z,4.17
2023-07-24T23:31:39.977Z,3.90
2023-07-24T23:34:07.677Z,4.00
2023-07-24T23:36:35.259Z,4.43
2023-07-24T23:39:04.387Z,4.43
2023-07-24T23:41:32.319Z,4.30
2023-07-24T23:44:00.304Z,4.65
2023-07-24T23:46:27.972Z,5.35
2023-07-24T23:48:55.936Z,5.90
2023-07-24T23:51:24.569Z,5.80
2023-07-24T23:53:52.650Z,5.90
2023-07-24T23:56:21.980Z,5.25
2023-07-24T23:58:49.513Z,4.93
